Terminal Aerodrome Forecast
Issued by NWS Wilmington, NC

Home | Current Version | Previous Version | Text Only | Print | Product List | Glossary On
Versions: 1 2 3 4 5 6 7 8 9 10 11 12 13 14 15 16 17 18 19 20
000
FTUS42 KILM 252300
TAFFLO
TAF
KFLO 252320Z 2600/2624 00000KT P6SM BKN020
     FM260700 00000KT 3SM BR SCT003 SCT060
      TEMPO 2609/2612 1SM BR VV003
     FM261400 23004KT 6SM BR SCT020 SCT090
     FM261900 22008KT P6SM VCSH SCT035 BKN250=

USA.gov is the U.S. government's official web portal to all federal, state and local government web resources and services.